sensor_id;sensor_type;location;lat;lon;timestamp;P1;durP1;ratioP1;P2;durP2;ratioP2
12124;SDS011;6126;57.908;16.490;2022-09-09T00:04:34;2.05;;;0.82;;
12124;SDS011;6126;57.908;16.490;2022-09-09T00:10:29;1.55;;;0.70;;
12124;SDS011;6126;57.908;16.490;2022-09-09T00:13:19;3.08;;;0.90;;
12124;SDS011;6126;57.908;16.490;2022-09-09T00:16:17;2.08;;;0.68;;
12124;SDS011;6126;57.908;16.490;2022-09-09T00:18:51;1.45;;;0.80;;
12124;SDS011;6126;57.908;16.490;2022-09-09T00:21:34;2.58;;;1.10;;
12124;SDS011;6126;57.908;16.490;2022-09-09T00:24:18;3.25;;;0.80;;
12124;SDS011;6126;57.908;16.490;2022-09-09T00:27:08;1.17;;;0.93;;
12124;SDS011;6126;57.908;16.490;2022-09-09T00:32:46;1.33;;;0.73;;
12124;SDS011;6126;57.908;16.490;2022-09-09T00:37:56;0.88;;;0.73;;
12124;SDS011;6126;57.908;16.490;2022-09-09T00:43:40;1.35;;;0.80;;
12124;SDS011;6126;57.908;16.490;2022-09-09T00:52:12;3.28;;;0.80;;
12124;SDS011;6126;57.908;16.490;2022-09-09T00:58:08;1.05;;;0.70;;
12124;SDS011;6126;57.908;16.490;2022-09-09T01:00:55;2.70;;;1.13;;
12124;SDS011;6126;57.908;16.490;2022-09-09T01:11:22;1.50;;;0.60;;
12124;SDS011;6126;57.908;16.490;2022-09-09T01:14:14;3.90;;;0.70;;
12124;SDS011;6126;57.908;16.490;2022-09-09T01:17:04;0.82;;;0.60;;
12124;SDS011;6126;57.908;16.490;2022-09-09T01:25:27;0.70;;;0.70;;
12124;SDS011;6126;57.908;16.490;2022-09-09T01:28:10;1.25;;;0.80;;
12124;SDS011;6126;57.908;16.490;2022-09-09T01:30:47;1.65;;;1.17;;
12124;SDS011;6126;57.908;16.490;2022-09-09T01:33:15;4.45;;;0.90;;
12124;SDS011;6126;57.908;16.490;2022-09-09T01:38:27;1.65;;;0.70;;
12124;SDS011;6126;57.908;16.490;2022-09-09T01:40:56;2.47;;;0.82;;
12124;SDS011;6126;57.908;16.490;2022-09-09T01:43:23;1.05;;;0.85;;
12124;SDS011;6126;57.908;16.490;2022-09-09T01:45:53;1.95;;;0.90;;
12124;SDS011;6126;57.908;16.490;2022-09-09T01:48:21;1.88;;;0.70;;
12124;SDS011;6126;57.908;16.490;2022-09-09T01:50:49;1.58;;;0.73;;
12124;SDS011;6126;57.908;16.490;2022-09-09T01:53:16;1.83;;;1.25;;
12124;SDS011;6126;57.908;16.490;2022-09-09T01:55:46;1.38;;;0.73;;
12124;SDS011;6126;57.908;16.490;2022-09-09T02:04:14;6.25;;;1.00;;
12124;SDS011;6126;57.908;16.490;2022-09-09T02:07:06;2.15;;;0.90;;
12124;SDS011;6126;57.908;16.490;2022-09-09T02:09:42;2.17;;;0.63;;
12124;SDS011;6126;57.908;16.490;2022-09-09T02:12:16;5.68;;;1.13;;
12124;SDS011;6126;57.908;16.490;2022-09-09T02:14:49;1.98;;;1.05;;
12124;SDS011;6126;57.908;16.490;2022-09-09T02:17:28;0.88;;;0.88;;
12124;SDS011;6126;57.908;16.490;2022-09-09T02:20:19;2.70;;;1.25;;
12124;SDS011;6126;57.908;16.490;2022-09-09T02:22:48;1.27;;;0.88;;
12124;SDS011;6126;57.908;16.490;2022-09-09T02:25:17;4.90;;;0.82;;
12124;SDS011;6126;57.908;16.490;2022-09-09T02:27:48;3.15;;;0.90;;
12124;SDS011;6126;57.908;16.490;2022-09-09T02:30:19;1.30;;;0.88;;
12124;SDS011;6126;57.908;16.490;2022-09-09T02:32:45;3.53;;;1.02;;
12124;SDS011;6126;57.908;16.490;2022-09-09T02:35:17;1.67;;;0.90;;
12124;SDS011;6126;57.908;16.490;2022-09-09T02:37:49;1.45;;;0.90;;
12124;SDS011;6126;57.908;16.490;2022-09-09T02:40:20;1.45;;;0.90;;
12124;SDS011;6126;57.908;16.490;2022-09-09T02:42:47;3.53;;;1.08;;
12124;SDS011;6126;57.908;16.490;2022-09-09T02:45:16;3.22;;;1.00;;
12124;SDS011;6126;57.908;16.490;2022-09-09T02:51:10;1.95;;;1.10;;
12124;SDS011;6126;57.908;16.490;2022-09-09T02:56:36;5.40;;;1.15;;
12124;SDS011;6126;57.908;16.490;2022-09-09T02:59:08;1.77;;;1.40;;
12124;SDS011;6126;57.908;16.490;2022-09-09T03:01:36;2.88;;;0.70;;
12124;SDS011;6126;57.908;16.490;2022-09-09T03:04:03;2.10;;;0.90;;
12124;SDS011;6126;57.908;16.490;2022-09-09T03:06:30;1.77;;;0.90;;
12124;SDS011;6126;57.908;16.490;2022-09-09T03:08:56;1.33;;;0.98;;
12124;SDS011;6126;57.908;16.490;2022-09-09T03:11:24;1.25;;;0.98;;
12124;SDS011;6126;57.908;16.490;2022-09-09T03:13:49;1.80;;;0.80;;
12124;SDS011;6126;57.908;16.490;2022-09-09T03:16:16;2.88;;;1.17;;
12124;SDS011;6126;57.908;16.490;2022-09-09T03:18:42;1.27;;;0.88;;
12124;SDS011;6126;57.908;16.490;2022-09-09T03:21:10;2.97;;;0.90;;
12124;SDS011;6126;57.908;16.490;2022-09-09T03:23:36;4.80;;;1.20;;
12124;SDS011;6126;57.908;16.490;2022-09-09T03:26:02;1.52;;;1.00;;
12124;SDS011;6126;57.908;16.490;2022-09-09T03:28:28;3.85;;;0.82;;
12124;SDS011;6126;57.908;16.490;2022-09-09T03:31:02;1.20;;;0.80;;
12124;SDS011;6126;57.908;16.490;2022-09-09T03:33:30;1.85;;;1.02;;
12124;SDS011;6126;57.908;16.490;2022-09-09T03:35:57;1.58;;;1.02;;
12124;SDS011;6126;57.908;16.490;2022-09-09T03:38:23;1.13;;;0.98;;
12124;SDS011;6126;57.908;16.490;2022-09-09T03:40:53;1.60;;;0.85;;
12124;SDS011;6126;57.908;16.490;2022-09-09T03:43:25;1.75;;;1.08;;
12124;SDS011;6126;57.908;16.490;2022-09-09T03:45:52;1.48;;;0.85;;
12124;SDS011;6126;57.908;16.490;2022-09-09T03:48:21;3.67;;;1.05;;
12124;SDS011;6126;57.908;16.490;2022-09-09T03:50:50;1.52;;;0.90;;
12124;SDS011;6126;57.908;16.490;2022-09-09T03:53:19;2.17;;;1.00;;
12124;SDS011;6126;57.908;16.490;2022-09-09T03:55:50;2.45;;;1.13;;
12124;SDS011;6126;57.908;16.490;2022-09-09T03:58:19;2.88;;;1.00;;
12124;SDS011;6126;57.908;16.490;2022-09-09T04:01:02;3.05;;;1.00;;
12124;SDS011;6126;57.908;16.490;2022-09-09T04:03:33;3.50;;;1.02;;
12124;SDS011;6126;57.908;16.490;2022-09-09T04:06:00;3.13;;;0.82;;
12124;SDS011;6126;57.908;16.490;2022-09-09T04:08:28;1.75;;;0.90;;
12124;SDS011;6126;57.908;16.490;2022-09-09T04:10:59;1.73;;;0.93;;
12124;SDS011;6126;57.908;16.490;2022-09-09T04:13:30;5.85;;;1.13;;
12124;SDS011;6126;57.908;16.490;2022-09-09T04:15:57;2.65;;;1.00;;
12124;SDS011;6126;57.908;16.490;2022-09-09T04:18:25;5.40;;;1.17;;
12124;SDS011;6126;57.908;16.490;2022-09-09T04:20:53;0.77;;;0.77;;
12124;SDS011;6126;57.908;16.490;2022-09-09T04:23:22;1.38;;;1.15;;
12124;SDS011;6126;57.908;16.490;2022-09-09T04:25:51;3.75;;;1.08;;
12124;SDS011;6126;57.908;16.490;2022-09-09T04:28:19;1.55;;;0.82;;
12124;SDS011;6126;57.908;16.490;2022-09-09T04:30:48;2.20;;;1.10;;
12124;SDS011;6126;57.908;16.490;2022-09-09T04:33:15;1.90;;;1.20;;
12124;SDS011;6126;57.908;16.490;2022-09-09T04:35:45;3.08;;;1.23;;
12124;SDS011;6126;57.908;16.490;2022-09-09T04:38:13;1.33;;;0.90;;
12124;SDS011;6126;57.908;16.490;2022-09-09T04:40:42;1.40;;;1.02;;
12124;SDS011;6126;57.908;16.490;2022-09-09T04:43:11;1.70;;;0.90;;
12124;SDS011;6126;57.908;16.490;2022-09-09T04:45:39;5.50;;;1.13;;
12124;SDS011;6126;57.908;16.490;2022-09-09T04:48:06;1.50;;;1.40;;
12124;SDS011;6126;57.908;16.490;2022-09-09T04:50:33;2.70;;;1.00;;
12124;SDS011;6126;57.908;16.490;2022-09-09T04:53:02;2.45;;;1.10;;
12124;SDS011;6126;57.908;16.490;2022-09-09T04:55:30;1.17;;;1.00;;
12124;SDS011;6126;57.908;16.490;2022-09-09T04:57:57;1.45;;;0.90;;
12124;SDS011;6126;57.908;16.490;2022-09-09T05:00:23;3.85;;;1.00;;
12124;SDS011;6126;57.908;16.490;2022-09-09T05:02:49;2.35;;;1.23;;
12124;SDS011;6126;57.908;16.490;2022-09-09T05:05:16;1.73;;;1.20;;
12124;SDS011;6126;57.908;16.490;2022-09-09T05:07:43;3.50;;;1.25;;
12124;SDS011;6126;57.908;16.490;2022-09-09T05:10:09;3.05;;;0.82;;
12124;SDS011;6126;57.908;16.490;2022-09-09T05:12:35;1.88;;;0.95;;
12124;SDS011;6126;57.908;16.490;2022-09-09T05:15:01;4.45;;;1.58;;
12124;SDS011;6126;57.908;16.490;2022-09-09T05:17:28;3.83;;;1.05;;
12124;SDS011;6126;57.908;16.490;2022-09-09T05:19:53;1.17;;;0.82;;
12124;SDS011;6126;57.908;16.490;2022-09-09T05:22:20;2.42;;;1.15;;
12124;SDS011;6126;57.908;16.490;2022-09-09T05:24:49;2.78;;;1.00;;
12124;SDS011;6126;57.908;16.490;2022-09-09T05:27:18;1.98;;;1.00;;
12124;SDS011;6126;57.908;16.490;2022-09-09T05:29:47;1.70;;;0.88;;
12124;SDS011;6126;57.908;16.490;2022-09-09T05:32:13;2.22;;;1.10;;
12124;SDS011;6126;57.908;16.490;2022-09-09T05:34:41;6.28;;;1.02;;
12124;SDS011;6126;57.908;16.490;2022-09-09T05:37:06;2.72;;;1.35;;
12124;SDS011;6126;57.908;16.490;2022-09-09T05:39:33;1.67;;;1.40;;
12124;SDS011;6126;57.908;16.490;2022-09-09T05:42:01;1.60;;;1.00;;
12124;SDS011;6126;57.908;16.490;2022-09-09T05:44:29;4.03;;;1.23;;
12124;SDS011;6126;57.908;16.490;2022-09-09T05:46:55;1.65;;;0.88;;
12124;SDS011;6126;57.908;16.490;2022-09-09T05:49:22;4.55;;;1.10;;
12124;SDS011;6126;57.908;16.490;2022-09-09T05:51:49;2.35;;;1.00;;
12124;SDS011;6126;57.908;16.490;2022-09-09T05:54:15;2.03;;;1.00;;
12124;SDS011;6126;57.908;16.490;2022-09-09T05:56:41;2.78;;;1.15;;
12124;SDS011;6126;57.908;16.490;2022-09-09T05:59:08;2.65;;;1.10;;
12124;SDS011;6126;57.908;16.490;2022-09-09T06:01:35;2.10;;;1.20;;
12124;SDS011;6126;57.908;16.490;2022-09-09T06:04:05;3.28;;;1.13;;
12124;SDS011;6126;57.908;16.490;2022-09-09T06:06:36;2.28;;;0.77;;
12124;SDS011;6126;57.908;16.490;2022-09-09T06:09:05;1.10;;;0.93;;
12124;SDS011;6126;57.908;16.490;2022-09-09T06:11:35;4.28;;;1.10;;
12124;SDS011;6126;57.908;16.490;2022-09-09T06:14:04;1.05;;;0.95;;
12124;SDS011;6126;57.908;16.490;2022-09-09T06:16:31;1.35;;;1.05;;
12124;SDS011;6126;57.908;16.490;2022-09-09T06:18:59;1.20;;;1.10;;
12124;SDS011;6126;57.908;16.490;2022-09-09T06:21:30;2.95;;;1.20;;
12124;SDS011;6126;57.908;16.490;2022-09-09T06:24:05;1.95;;;1.10;;
12124;SDS011;6126;57.908;16.490;2022-09-09T06:26:38;1.60;;;0.77;;
12124;SDS011;6126;57.908;16.490;2022-09-09T06:29:10;2.38;;;0.93;;
12124;SDS011;6126;57.908;16.490;2022-09-09T06:31:36;5.18;;;1.10;;
12124;SDS011;6126;57.908;16.490;2022-09-09T06:34:04;2.15;;;1.00;;
12124;SDS011;6126;57.908;16.490;2022-09-09T06:36:32;1.98;;;1.00;;
12124;SDS011;6126;57.908;16.490;2022-09-09T06:39:02;2.85;;;0.93;;
12124;SDS011;6126;57.908;16.490;2022-09-09T06:41:30;4.28;;;1.20;;
12124;SDS011;6126;57.908;16.490;2022-09-09T06:43:58;1.02;;;0.90;;
12124;SDS011;6126;57.908;16.490;2022-09-09T06:46:25;2.42;;;0.80;;
12124;SDS011;6126;57.908;16.490;2022-09-09T06:48:57;1.90;;;1.10;;
12124;SDS011;6126;57.908;16.490;2022-09-09T06:51:34;1.20;;;0.82;;
12124;SDS011;6126;57.908;16.490;2022-09-09T06:54:07;1.98;;;1.05;;
12124;SDS011;6126;57.908;16.490;2022-09-09T06:59:09;1.48;;;0.90;;
12124;SDS011;6126;57.908;16.490;2022-09-09T07:01:36;1.13;;;0.93;;
12124;SDS011;6126;57.908;16.490;2022-09-09T07:04:05;1.70;;;1.10;;
12124;SDS011;6126;57.908;16.490;2022-09-09T07:06:35;2.30;;;0.98;;
12124;SDS011;6126;57.908;16.490;2022-09-09T07:09:09;2.30;;;1.40;;
12124;SDS011;6126;57.908;16.490;2022-09-09T07:14:09;2.78;;;1.08;;
12124;SDS011;6126;57.908;16.490;2022-09-09T07:16:39;1.75;;;0.93;;
12124;SDS011;6126;57.908;16.490;2022-09-09T07:19:09;1.10;;;0.85;;
12124;SDS011;6126;57.908;16.490;2022-09-09T07:21:36;1.67;;;0.85;;
12124;SDS011;6126;57.908;16.490;2022-09-09T07:24:02;3.13;;;0.88;;
12124;SDS011;6126;57.908;16.490;2022-09-09T07:26:32;1.20;;;1.05;;
12124;SDS011;6126;57.908;16.490;2022-09-09T07:28:58;1.67;;;0.88;;
12124;SDS011;6126;57.908;16.490;2022-09-09T07:31:31;2.90;;;1.13;;
12124;SDS011;6126;57.908;16.490;2022-09-09T07:34:01;1.85;;;1.15;;
12124;SDS011;6126;57.908;16.490;2022-09-09T07:36:33;3.65;;;1.20;;
12124;SDS011;6126;57.908;16.490;2022-09-09T07:39:04;2.97;;;1.65;;
12124;SDS011;6126;57.908;16.490;2022-09-09T07:41:36;0.88;;;0.88;;
12124;SDS011;6126;57.908;16.490;2022-09-09T07:44:22;1.60;;;1.00;;
12124;SDS011;6126;57.908;16.490;2022-09-09T07:46:50;4.55;;;1.33;;
12124;SDS011;6126;57.908;16.490;2022-09-09T07:49:16;1.27;;;1.00;;
12124;SDS011;6126;57.908;16.490;2022-09-09T07:51:44;1.25;;;1.02;;
12124;SDS011;6126;57.908;16.490;2022-09-09T07:54:13;1.33;;;0.93;;
12124;SDS011;6126;57.908;16.490;2022-09-09T07:56:44;1.65;;;0.80;;
12124;SDS011;6126;57.908;16.490;2022-09-09T07:59:11;3.17;;;1.05;;
12124;SDS011;6126;57.908;16.490;2022-09-09T08:01:45;3.63;;;0.95;;
12124;SDS011;6126;57.908;16.490;2022-09-09T08:04:19;2.70;;;1.10;;
12124;SDS011;6126;57.908;16.490;2022-09-09T08:06:57;2.20;;;1.30;;
12124;SDS011;6126;57.908;16.490;2022-09-09T08:09:26;5.20;;;1.00;;
12124;SDS011;6126;57.908;16.490;2022-09-09T08:11:54;5.80;;;1.30;;
12124;SDS011;6126;57.908;16.490;2022-09-09T08:14:24;1.88;;;1.00;;
12124;SDS011;6126;57.908;16.490;2022-09-09T08:16:51;3.38;;;1.15;;
12124;SDS011;6126;57.908;16.490;2022-09-09T08:19:19;2.22;;;1.08;;
12124;SDS011;6126;57.908;16.490;2022-09-09T08:21:45;0.95;;;0.90;;
12124;SDS011;6126;57.908;16.490;2022-09-09T08:24:11;1.20;;;1.05;;
12124;SDS011;6126;57.908;16.490;2022-09-09T08:26:42;1.98;;;1.10;;
12124;SDS011;6126;57.908;16.490;2022-09-09T08:29:11;1.25;;;1.05;;
12124;SDS011;6126;57.908;16.490;2022-09-09T08:31:48;2.40;;;1.10;;
12124;SDS011;6126;57.908;16.490;2022-09-09T08:34:19;1.30;;;1.20;;
12124;SDS011;6126;57.908;16.490;2022-09-09T08:36:47;1.45;;;0.90;;
12124;SDS011;6126;57.908;16.490;2022-09-09T08:39:15;2.13;;;0.82;;
12124;SDS011;6126;57.908;16.490;2022-09-09T08:47:15;1.77;;;1.00;;
12124;SDS011;6126;57.908;16.490;2022-09-09T08:50:16;1.60;;;1.00;;
12124;SDS011;6126;57.908;16.490;2022-09-09T08:55:24;2.78;;;0.90;;
12124;SDS011;6126;57.908;16.490;2022-09-09T09:04:22;1.90;;;1.40;;
12124;SDS011;6126;57.908;16.490;2022-09-09T09:13:13;2.75;;;1.50;;
12124;SDS011;6126;57.908;16.490;2022-09-09T09:15:48;3.92;;;1.42;;
12124;SDS011;6126;57.908;16.490;2022-09-09T09:18:21;3.40;;;1.00;;
12124;SDS011;6126;57.908;16.490;2022-09-09T09:26:28;1.40;;;1.00;;
12124;SDS011;6126;57.908;16.490;2022-09-09T09:28:59;2.65;;;1.00;;
12124;SDS011;6126;57.908;16.490;2022-09-09T09:31:37;1.50;;;1.20;;
12124;SDS011;6126;57.908;16.490;2022-09-09T09:34:03;1.38;;;1.10;;
12124;SDS011;6126;57.908;16.490;2022-09-09T09:36:33;1.33;;;1.08;;
12124;SDS011;6126;57.908;16.490;2022-09-09T09:39:06;1.67;;;1.20;;
12124;SDS011;6126;57.908;16.490;2022-09-09T09:41:38;5.05;;;1.10;;
12124;SDS011;6126;57.908;16.490;2022-09-09T09:47:07;1.45;;;1.13;;
12124;SDS011;6126;57.908;16.490;2022-09-09T09:49:34;3.75;;;1.00;;
12124;SDS011;6126;57.908;16.490;2022-09-09T09:52:01;1.40;;;0.95;;
12124;SDS011;6126;57.908;16.490;2022-09-09T09:54:29;2.55;;;1.13;;
12124;SDS011;6126;57.908;16.490;2022-09-09T09:57:07;2.58;;;1.30;;
12124;SDS011;6126;57.908;16.490;2022-09-09T09:59:36;3.13;;;1.13;;
12124;SDS011;6126;57.908;16.490;2022-09-09T10:02:31;3.15;;;1.17;;
12124;SDS011;6126;57.908;16.490;2022-09-09T10:05:06;1.77;;;1.15;;
12124;SDS011;6126;57.908;16.490;2022-09-09T10:07:42;1.80;;;1.35;;
12124;SDS011;6126;57.908;16.490;2022-09-09T10:10:15;1.70;;;1.20;;
12124;SDS011;6126;57.908;16.490;2022-09-09T10:13:11;2.63;;;0.98;;
12124;SDS011;6126;57.908;16.490;2022-09-09T10:16:11;3.00;;;1.15;;
12124;SDS011;6126;57.908;16.490;2022-09-09T10:19:03;2.53;;;1.20;;
12124;SDS011;6126;57.908;16.490;2022-09-09T10:25:09;3.00;;;1.05;;
12124;SDS011;6126;57.908;16.490;2022-09-09T10:33:55;2.30;;;1.00;;
12124;SDS011;6126;57.908;16.490;2022-09-09T10:36:58;2.08;;;1.00;;
12124;SDS011;6126;57.908;16.490;2022-09-09T10:42:14;1.98;;;1.02;;
12124;SDS011;6126;57.908;16.490;2022-09-09T10:50:58;1.50;;;1.00;;
12124;SDS011;6126;57.908;16.490;2022-09-09T10:57:07;1.20;;;1.02;;
12124;SDS011;6126;57.908;16.490;2022-09-09T11:00:05;2.10;;;1.10;;
12124;SDS011;6126;57.908;16.490;2022-09-09T11:02:52;7.22;;;1.25;;
12124;SDS011;6126;57.908;16.490;2022-09-09T11:07:58;2.58;;;1.13;;
12124;SDS011;6126;57.908;16.490;2022-09-09T11:10:41;1.95;;;1.20;;
12124;SDS011;6126;57.908;16.490;2022-09-09T11:22:06;3.95;;;1.27;;
12124;SDS011;6126;57.908;16.490;2022-09-09T11:24:50;1.88;;;1.33;;
12124;SDS011;6126;57.908;16.490;2022-09-09T11:39:00;1.58;;;1.27;;
12124;SDS011;6126;57.908;16.490;2022-09-09T11:41:36;1.23;;;0.90;;
12124;SDS011;6126;57.908;16.490;2022-09-09T11:44:09;1.52;;;1.10;;
12124;SDS011;6126;57.908;16.490;2022-09-09T11:46:55;2.63;;;1.17;;
12124;SDS011;6126;57.908;16.490;2022-09-09T11:53:03;2.35;;;1.15;;
12124;SDS011;6126;57.908;16.490;2022-09-09T11:55:26;1.13;;;1.00;;
12124;SDS011;6126;57.908;16.490;2022-09-09T12:03:05;1.55;;;1.20;;
12124;SDS011;6126;57.908;16.490;2022-09-09T12:08:57;1.23;;;1.00;;
12124;SDS011;6126;57.908;16.490;2022-09-09T12:11:52;2.42;;;1.00;;
12124;SDS011;6126;57.908;16.490;2022-09-09T12:14:43;2.28;;;1.20;;
12124;SDS011;6126;57.908;16.490;2022-09-09T12:17:26;2.65;;;1.00;;
12124;SDS011;6126;57.908;16.490;2022-09-09T12:29:04;2.25;;;1.15;;
12124;SDS011;6126;57.908;16.490;2022-09-09T12:37:27;1.98;;;0.93;;
12124;SDS011;6126;57.908;16.490;2022-09-09T12:40:03;3.38;;;1.35;;
12124;SDS011;6126;57.908;16.490;2022-09-09T12:42:44;1.70;;;0.90;;
12124;SDS011;6126;57.908;16.490;2022-09-09T12:45:17;2.00;;;1.30;;
12124;SDS011;6126;57.908;16.490;2022-09-09T12:48:10;2.35;;;1.30;;
12124;SDS011;6126;57.908;16.490;2022-09-09T12:50:44;1.25;;;1.13;;
12124;SDS011;6126;57.908;16.490;2022-09-09T12:53:23;1.88;;;1.00;;
12124;SDS011;6126;57.908;16.490;2022-09-09T12:56:05;3.00;;;1.20;;
12124;SDS011;6126;57.908;16.490;2022-09-09T12:58:35;2.08;;;1.20;;
12124;SDS011;6126;57.908;16.490;2022-09-09T13:01:04;2.03;;;0.90;;
12124;SDS011;6126;57.908;16.490;2022-09-09T13:03:31;3.95;;;1.30;;
12124;SDS011;6126;57.908;16.490;2022-09-09T13:06:11;5.53;;;1.15;;
12124;SDS011;6126;57.908;16.490;2022-09-09T13:08:44;3.33;;;1.05;;
12124;SDS011;6126;57.908;16.490;2022-09-09T13:11:12;4.05;;;1.30;;
12124;SDS011;6126;57.908;16.490;2022-09-09T13:13:49;4.18;;;1.20;;
12124;SDS011;6126;57.908;16.490;2022-09-09T13:16:23;3.55;;;1.40;;
12124;SDS011;6126;57.908;16.490;2022-09-09T13:19:02;2.00;;;1.25;;
12124;SDS011;6126;57.908;16.490;2022-09-09T13:21:39;2.33;;;1.50;;
12124;SDS011;6126;57.908;16.490;2022-09-09T13:24:06;2.85;;;1.20;;
12124;SDS011;6126;57.908;16.490;2022-09-09T13:27:02;2.67;;;1.27;;
12124;SDS011;6126;57.908;16.490;2022-09-09T13:29:55;6.68;;;1.30;;
12124;SDS011;6126;57.908;16.490;2022-09-09T13:32:22;2.70;;;1.35;;
12124;SDS011;6126;57.908;16.490;2022-09-09T13:34:59;3.80;;;1.50;;
12124;SDS011;6126;57.908;16.490;2022-09-09T13:37:34;1.70;;;1.30;;
12124;SDS011;6126;57.908;16.490;2022-09-09T13:40:17;3.58;;;1.30;;
12124;SDS011;6126;57.908;16.490;2022-09-09T13:42:46;1.58;;;1.27;;
12124;SDS011;6126;57.908;16.490;2022-09-09T13:45:20;1.75;;;1.20;;
12124;SDS011;6126;57.908;16.490;2022-09-09T13:47:49;3.65;;;1.40;;
12124;SDS011;6126;57.908;16.490;2022-09-09T13:52:53;2.63;;;1.33;;
12124;SDS011;6126;57.908;16.490;2022-09-09T13:55:24;2.10;;;1.20;;
12124;SDS011;6126;57.908;16.490;2022-09-09T13:57:56;1.55;;;1.13;;
12124;SDS011;6126;57.908;16.490;2022-09-09T14:00:29;5.35;;;1.58;;
12124;SDS011;6126;57.908;16.490;2022-09-09T14:02:58;5.38;;;1.30;;
12124;SDS011;6126;57.908;16.490;2022-09-09T14:05:27;5.00;;;1.60;;
12124;SDS011;6126;57.908;16.490;2022-09-09T14:07:57;4.07;;;1.77;;
12124;SDS011;6126;57.908;16.490;2022-09-09T14:10:23;1.90;;;1.48;;
12124;SDS011;6126;57.908;16.490;2022-09-09T14:12:49;4.97;;;1.45;;
12124;SDS011;6126;57.908;16.490;2022-09-09T14:15:14;2.08;;;1.45;;
12124;SDS011;6126;57.908;16.490;2022-09-09T14:17:41;2.85;;;1.45;;
12124;SDS011;6126;57.908;16.490;2022-09-09T14:20:08;3.38;;;1.40;;
12124;SDS011;6126;57.908;16.490;2022-09-09T14:22:36;4.30;;;1.70;;
12124;SDS011;6126;57.908;16.490;2022-09-09T14:25:04;2.75;;;1.67;;
12124;SDS011;6126;57.908;16.490;2022-09-09T14:27:31;5.00;;;1.65;;
12124;SDS011;6126;57.908;16.490;2022-09-09T14:29:57;1.92;;;1.65;;
12124;SDS011;6126;57.908;16.490;2022-09-09T14:32:25;4.78;;;1.73;;
12124;SDS011;6126;57.908;16.490;2022-09-09T14:34:51;4.28;;;2.22;;
12124;SDS011;6126;57.908;16.490;2022-09-09T14:37:17;4.05;;;1.55;;
12124;SDS011;6126;57.908;16.490;2022-09-09T14:39:44;4.15;;;2.08;;
12124;SDS011;6126;57.908;16.490;2022-09-09T14:42:12;2.60;;;1.83;;
12124;SDS011;6126;57.908;16.490;2022-09-09T14:44:41;2.53;;;1.80;;
12124;SDS011;6126;57.908;16.490;2022-09-09T14:47:07;5.07;;;1.95;;
12124;SDS011;6126;57.908;16.490;2022-09-09T14:49:37;3.38;;;2.28;;
12124;SDS011;6126;57.908;16.490;2022-09-09T14:52:03;4.90;;;2.00;;
12124;SDS011;6126;57.908;16.490;2022-09-09T14:54:30;1.73;;;1.63;;
12124;SDS011;6126;57.908;16.490;2022-09-09T14:56:57;3.38;;;2.13;;
12124;SDS011;6126;57.908;16.490;2022-09-09T14:59:23;4.47;;;2.17;;
12124;SDS011;6126;57.908;16.490;2022-09-09T15:01:49;3.97;;;1.55;;
12124;SDS011;6126;57.908;16.490;2022-09-09T15:04:15;3.85;;;1.88;;
12124;SDS011;6126;57.908;16.490;2022-09-09T15:06:42;2.50;;;1.65;;
12124;SDS011;6126;57.908;16.490;2022-09-09T15:09:12;4.03;;;2.40;;
12124;SDS011;6126;57.908;16.490;2022-09-09T15:11:37;5.22;;;2.60;;
12124;SDS011;6126;57.908;16.490;2022-09-09T15:14:04;6.00;;;2.33;;
12124;SDS011;6126;57.908;16.490;2022-09-09T15:16:33;5.85;;;2.33;;
12124;SDS011;6126;57.908;16.490;2022-09-09T15:19:00;7.57;;;2.42;;
12124;SDS011;6126;57.908;16.490;2022-09-09T15:21:29;3.78;;;2.35;;
12124;SDS011;6126;57.908;16.490;2022-09-09T15:23:58;3.10;;;1.80;;
12124;SDS011;6126;57.908;16.490;2022-09-09T15:26:24;3.72;;;2.25;;
12124;SDS011;6126;57.908;16.490;2022-09-09T15:28:51;2.70;;;2.35;;
12124;SDS011;6126;57.908;16.490;2022-09-09T15:31:18;3.47;;;2.05;;
12124;SDS011;6126;57.908;16.490;2022-09-09T15:33:49;3.60;;;1.80;;
12124;SDS011;6126;57.908;16.490;2022-09-09T15:36:19;5.93;;;2.58;;
12124;SDS011;6126;57.908;16.490;2022-09-09T15:38:50;6.05;;;2.20;;
12124;SDS011;6126;57.908;16.490;2022-09-09T15:41:17;3.35;;;1.80;;
12124;SDS011;6126;57.908;16.490;2022-09-09T15:43:46;4.88;;;2.15;;
12124;SDS011;6126;57.908;16.490;2022-09-09T15:48:54;5.45;;;2.13;;
12124;SDS011;6126;57.908;16.490;2022-09-09T15:51:24;4.45;;;2.13;;
12124;SDS011;6126;57.908;16.490;2022-09-09T15:53:57;7.25;;;2.20;;
12124;SDS011;6126;57.908;16.490;2022-09-09T15:56:25;6.10;;;1.85;;
12124;SDS011;6126;57.908;16.490;2022-09-09T15:59:00;4.25;;;1.90;;
12124;SDS011;6126;57.908;16.490;2022-09-09T16:01:28;7.80;;;2.33;;
12124;SDS011;6126;57.908;16.490;2022-09-09T16:03:56;3.90;;;2.30;;
12124;SDS011;6126;57.908;16.490;2022-09-09T16:06:25;4.95;;;2.40;;
12124;SDS011;6126;57.908;16.490;2022-09-09T16:08:54;4.10;;;2.28;;
12124;SDS011;6126;57.908;16.490;2022-09-09T16:11:26;4.40;;;2.67;;
12124;SDS011;6126;57.908;16.490;2022-09-09T16:14:00;3.15;;;2.30;;
12124;SDS011;6126;57.908;16.490;2022-09-09T16:16:28;2.65;;;2.10;;
12124;SDS011;6126;57.908;16.490;2022-09-09T16:18:56;5.15;;;2.47;;
12124;SDS011;6126;57.908;16.490;2022-09-09T16:21:28;3.47;;;2.15;;
12124;SDS011;6126;57.908;16.490;2022-09-09T16:23:57;2.63;;;2.33;;
12124;SDS011;6126;57.908;16.490;2022-09-09T16:26:27;3.75;;;2.63;;
12124;SDS011;6126;57.908;16.490;2022-09-09T16:28:56;4.03;;;2.35;;
12124;SDS011;6126;57.908;16.490;2022-09-09T16:31:24;7.15;;;2.33;;
12124;SDS011;6126;57.908;16.490;2022-09-09T16:33:52;3.00;;;1.77;;
12124;SDS011;6126;57.908;16.490;2022-09-09T16:36:20;3.72;;;2.42;;
12124;SDS011;6126;57.908;16.490;2022-09-09T16:38:51;2.80;;;2.28;;
12124;SDS011;6126;57.908;16.490;2022-09-09T16:41:22;4.22;;;2.25;;
12124;SDS011;6126;57.908;16.490;2022-09-09T16:43:53;4.82;;;2.40;;
12124;SDS011;6126;57.908;16.490;2022-09-09T16:46:29;6.22;;;2.08;;
12124;SDS011;6126;57.908;16.490;2022-09-09T16:48:57;6.65;;;2.20;;
12124;SDS011;6126;57.908;16.490;2022-09-09T16:51:26;4.97;;;2.20;;
12124;SDS011;6126;57.908;16.490;2022-09-09T16:54:15;3.38;;;2.50;;
12124;SDS011;6126;57.908;16.490;2022-09-09T16:56:44;4.03;;;2.42;;
12124;SDS011;6126;57.908;16.490;2022-09-09T16:59:13;4.25;;;2.55;;
12124;SDS011;6126;57.908;16.490;2022-09-09T17:01:42;3.63;;;2.00;;
12124;SDS011;6126;57.908;16.490;2022-09-09T17:04:13;4.65;;;2.60;;
12124;SDS011;6126;57.908;16.490;2022-09-09T17:06:46;4.93;;;2.22;;
12124;SDS011;6126;57.908;16.490;2022-09-09T17:09:16;4.30;;;2.08;;
12124;SDS011;6126;57.908;16.490;2022-09-09T17:11:44;5.85;;;2.60;;
12124;SDS011;6126;57.908;16.490;2022-09-09T17:14:12;4.70;;;2.60;;
12124;SDS011;6126;57.908;16.490;2022-09-09T17:16:42;4.32;;;2.60;;
12124;SDS011;6126;57.908;16.490;2022-09-09T17:19:09;6.32;;;2.10;;
12124;SDS011;6126;57.908;16.490;2022-09-09T17:21:36;3.53;;;2.00;;
12124;SDS011;6126;57.908;16.490;2022-09-09T17:24:03;2.53;;;1.85;;
12124;SDS011;6126;57.908;16.490;2022-09-09T17:26:30;3.97;;;2.40;;
12124;SDS011;6126;57.908;16.490;2022-09-09T17:28:58;2.72;;;2.08;;
12124;SDS011;6126;57.908;16.490;2022-09-09T17:31:27;4.53;;;2.47;;
12124;SDS011;6126;57.908;16.490;2022-09-09T17:33:55;3.47;;;2.10;;
12124;SDS011;6126;57.908;16.490;2022-09-09T17:36:22;5.22;;;2.25;;
12124;SDS011;6126;57.908;16.490;2022-09-09T17:38:52;3.13;;;2.30;;
12124;SDS011;6126;57.908;16.490;2022-09-09T17:41:22;4.95;;;2.10;;
12124;SDS011;6126;57.908;16.490;2022-09-09T17:43:55;3.13;;;2.15;;
12124;SDS011;6126;57.908;16.490;2022-09-09T17:46:26;5.93;;;2.30;;
12124;SDS011;6126;57.908;16.490;2022-09-09T17:48:58;4.43;;;2.47;;
12124;SDS011;6126;57.908;16.490;2022-09-09T17:51:27;4.57;;;2.55;;
12124;SDS011;6126;57.908;16.490;2022-09-09T17:54:03;3.15;;;2.47;;
12124;SDS011;6126;57.908;16.490;2022-09-09T17:56:34;4.72;;;2.38;;
12124;SDS011;6126;57.908;16.490;2022-09-09T17:59:02;3.75;;;2.50;;